createdAt,value
2018-09-04T00:01:39.936Z,7.27
2018-09-04T00:04:09.604Z,7.80
2018-09-04T00:06:39.087Z,7.60
2018-09-04T00:09:08.890Z,8.17
2018-09-04T00:11:38.582Z,8.10
2018-09-04T00:14:09.033Z,7.60
2018-09-04T00:16:38.614Z,7.60
2018-09-04T00:19:09.149Z,8.03
2018-09-04T00:21:38.748Z,7.80
2018-09-04T00:24:08.378Z,7.37
2018-09-04T00:26:37.979Z,8.70
2018-09-04T00:29:07.648Z,7.63
2018-09-04T00:31:37.365Z,8.53
2018-09-04T00:34:07.317Z,8.17
2018-09-04T00:36:37.005Z,7.13
2018-09-04T00:39:06.924Z,8.00
2018-09-04T00:41:36.451Z,7.30
2018-09-04T00:44:05.933Z,8.63
2018-09-04T00:46:35.658Z,8.23
2018-09-04T00:49:05.452Z,8.10
2018-09-04T00:51:35.157Z,7.73
2018-09-04T00:54:04.671Z,7.27
2018-09-04T00:56:34.421Z,6.93
2018-09-04T00:59:04.063Z,8.67
2018-09-04T01:01:33.737Z,8.63
2018-09-04T01:04:03.427Z,8.30
2018-09-04T01:06:33.248Z,9.13
2018-09-04T01:09:02.785Z,8.20
2018-09-04T01:11:32.452Z,9.00
2018-09-04T01:14:02.123Z,8.77
2018-09-04T01:16:32.073Z,7.70
2018-09-04T01:19:01.800Z,8.63
2018-09-04T01:21:31.385Z,9.30
2018-09-04T01:24:01.097Z,10.30
2018-09-04T01:26:30.595Z,8.33
2018-09-04T01:29:00.595Z,9.10
2018-09-04T01:31:30.221Z,8.47
2018-09-04T01:34:00.646Z,9.80
2018-09-04T01:36:30.718Z,9.30
2018-09-04T01:39:00.189Z,10.03
2018-09-04T01:41:29.798Z,8.80
2018-09-04T01:43:59.408Z,8.80
2018-09-04T01:46:29.090Z,9.70
2018-09-04T01:48:58.708Z,8.60
2018-09-04T01:51:28.317Z,9.27
2018-09-04T01:53:58.033Z,8.60
2018-09-04T01:56:27.624Z,8.50
2018-09-04T01:58:57.571Z,9.90
2018-09-04T02:01:27.065Z,9.33
2018-09-04T02:03:56.568Z,10.50
2018-09-04T02:06:26.057Z,10.57
2018-09-04T02:08:55.756Z,9.60
2018-09-04T02:11:25.368Z,10.93
2018-09-04T02:13:54.942Z,9.60
2018-09-04T02:16:25.031Z,11.53
2018-09-04T02:18:55.294Z,9.60
2018-09-04T02:21:25.025Z,10.67
2018-09-04T02:23:54.661Z,10.93
2018-09-04T02:26:24.345Z,9.63
2018-09-04T02:28:53.892Z,9.80
2018-09-04T02:31:23.570Z,9.93
2018-09-04T02:33:53.365Z,9.87
2018-09-04T02:36:23.070Z,10.87
2018-09-04T02:38:52.596Z,9.00
2018-09-04T02:41:22.328Z,10.23
2018-09-04T02:43:52.043Z,10.37
2018-09-04T02:46:21.673Z,10.90
2018-09-04T02:48:51.563Z,10.70
2018-09-04T02:51:21.176Z,9.50
2018-09-04T02:53:50.777Z,10.23
2018-09-04T02:56:20.260Z,10.30
2018-09-04T02:58:49.938Z,10.73
2018-09-04T03:01:19.397Z,10.30
2018-09-04T03:03:49.069Z,10.77
2018-09-04T03:06:18.669Z,10.70
2018-09-04T03:08:48.308Z,10.80
2018-09-04T03:11:18.128Z,9.00
2018-09-04T03:13:47.819Z,10.80
2018-09-04T03:16:17.436Z,9.23
2018-09-04T03:18:46.942Z,10.07
2018-09-04T03:21:16.524Z,10.70
2018-09-04T03:23:46.149Z,10.13
2018-09-04T03:26:15.858Z,9.70
2018-09-04T03:28:45.503Z,10.40
2018-09-04T03:31:15.257Z,9.90
2018-09-04T03:33:44.882Z,11.23
2018-09-04T03:36:14.585Z,10.33
2018-09-04T03:38:44.271Z,10.83
2018-09-04T03:41:14.014Z,9.47
2018-09-04T03:43:43.617Z,11.27
2018-09-04T03:46:15.958Z,9.77
2018-09-04T03:48:45.650Z,9.80
2018-09-04T03:51:15.349Z,10.97
2018-09-04T03:53:44.929Z,10.50
2018-09-04T03:56:14.642Z,9.83
2018-09-04T03:58:44.234Z,10.23
2018-09-04T04:01:13.939Z,11.80
2018-09-04T04:03:43.553Z,10.00
2018-09-04T04:06:13.266Z,10.27
2018-09-04T04:08:43.401Z,9.83
2018-09-04T04:11:13.120Z,9.87
2018-09-04T04:13:42.832Z,10.20
2018-09-04T04:16:12.492Z,10.37
2018-09-04T04:18:42.142Z,10.80
2018-09-04T04:21:12.026Z,9.80
2018-09-04T04:23:41.699Z,9.33
2018-09-04T04:26:12.007Z,10.10
2018-09-04T04:28:41.731Z,10.73
2018-09-04T04:31:11.494Z,10.50
2018-09-04T04:33:41.124Z,10.77
2018-09-04T04:36:10.800Z,9.33
2018-09-04T04:38:40.443Z,9.73
2018-09-04T04:41:10.152Z,11.13
2018-09-04T04:43:40.393Z,9.60
2018-09-04T04:46:09.857Z,11.93
2018-09-04T04:48:39.786Z,10.33
2018-09-04T04:51:09.509Z,9.80
2018-09-04T04:53:39.277Z,10.00
2018-09-04T04:56:09.541Z,9.83
2018-09-04T04:58:39.225Z,10.20
2018-09-04T05:01:08.882Z,9.70
2018-09-04T05:03:38.679Z,10.40
2018-09-04T05:06:08.179Z,10.53
2018-09-04T05:08:37.757Z,9.97
2018-09-04T05:11:07.522Z,10.80
2018-09-04T05:13:37.139Z,11.00
2018-09-04T05:16:06.892Z,10.20
2018-09-04T05:18:36.801Z,9.03
2018-09-04T05:21:06.550Z,10.77
2018-09-04T05:23:36.215Z,9.53
2018-09-04T05:26:05.852Z,10.17
2018-09-04T05:28:35.357Z,10.03
2018-09-04T05:31:05.082Z,11.93
2018-09-04T05:33:42.651Z,9.73
2018-09-04T05:36:12.403Z,10.67
2018-09-04T05:38:41.983Z,9.43
2018-09-04T05:41:11.613Z,10.80
2018-09-04T05:43:52.178Z,9.30
2018-09-04T05:46:54.583Z,9.10
2018-09-04T05:49:30.121Z,10.70
2018-09-04T05:51:59.666Z,9.83
2018-09-04T05:54:29.427Z,9.30
2018-09-04T05:56:59.043Z,9.80
2018-09-04T05:59:28.615Z,9.87
2018-09-04T06:01:58.676Z,9.33
2018-09-04T06:04:28.228Z,8.73
2018-09-04T06:06:57.850Z,9.20
2018-09-04T06:09:27.348Z,11.20
2018-09-04T06:11:56.853Z,10.20
2018-09-04T06:14:26.554Z,9.80
2018-09-04T06:16:56.185Z,10.50
2018-09-04T06:19:25.851Z,10.73
2018-09-04T06:21:55.476Z,9.03
2018-09-04T06:24:25.109Z,10.53
2018-09-04T06:26:54.864Z,10.47
2018-09-04T06:29:24.548Z,10.10
2018-09-04T06:31:54.223Z,10.60
2018-09-04T06:34:23.844Z,11.67
2018-09-04T06:36:53.828Z,10.73
2018-09-04T06:39:23.909Z,10.80
2018-09-04T06:41:54.324Z,11.20
2018-09-04T06:44:24.106Z,11.60
2018-09-04T06:46:53.790Z,11.80
2018-09-04T06:49:23.451Z,11.60
2018-09-04T06:51:53.028Z,11.83
2018-09-04T06:54:22.667Z,10.87
2018-09-04T06:56:52.250Z,10.23
2018-09-04T06:59:21.976Z,11.40
2018-09-04T07:01:51.841Z,11.40
2018-09-04T07:04:21.576Z,12.13
2018-09-04T07:06:51.054Z,11.53
2018-09-04T07:09:20.612Z,11.40
2018-09-04T07:11:50.282Z,11.97
2018-09-04T07:14:19.889Z,12.93
2018-09-04T07:16:49.782Z,10.80
2018-09-04T07:19:20.473Z,11.93
2018-09-04T07:21:49.992Z,11.30
2018-09-04T07:24:19.616Z,11.47
2018-09-04T07:26:49.008Z,11.10
2018-09-04T07:29:18.779Z,11.57
2018-09-04T07:31:48.495Z,10.50
2018-09-04T07:34:18.298Z,11.40
2018-09-04T07:36:47.791Z,10.97
2018-09-04T07:39:17.526Z,10.93
2018-09-04T07:41:47.315Z,11.20
2018-09-04T07:44:16.816Z,9.20
2018-09-04T07:46:46.297Z,10.97
2018-09-04T07:49:15.937Z,10.50
2018-09-04T07:51:45.516Z,11.07
2018-09-04T07:54:15.057Z,9.53
2018-09-04T07:56:45.221Z,10.63
2018-09-04T07:59:14.979Z,9.37
2018-09-04T08:01:44.691Z,8.40
2018-09-04T08:04:14.487Z,8.93
2018-09-04T08:06:44.048Z,8.83
2018-09-04T08:09:13.845Z,7.63
2018-09-04T08:11:43.429Z,8.10
2018-09-04T08:14:13.257Z,6.40
2018-09-04T08:16:42.947Z,5.40
2018-09-04T08:19:12.501Z,5.20
2018-09-04T08:21:42.057Z,6.20
2018-09-04T08:24:11.732Z,6.07
2018-09-04T08:26:41.292Z,5.53
2018-09-04T08:29:11.645Z,5.67
2018-09-04T08:31:41.239Z,5.03
2018-09-04T08:34:10.754Z,5.80
2018-09-04T08:36:40.313Z,5.40
2018-09-04T08:39:10.337Z,4.90
2018-09-04T08:41:39.949Z,4.80
2018-09-04T08:44:09.569Z,4.70
2018-09-04T08:46:39.006Z,5.17
2018-09-04T08:49:08.702Z,3.70
2018-09-04T08:51:38.176Z,3.67
2018-09-04T08:54:07.899Z,4.33
2018-09-04T08:56:37.383Z,3.73
2018-09-04T08:59:06.932Z,3.73
2018-09-04T09:01:36.600Z,3.80
2018-09-04T09:04:06.350Z,3.77
2018-09-04T09:06:36.021Z,4.47
2018-09-04T09:09:08.427Z,3.47
2018-09-04T09:11:38.137Z,3.90
2018-09-04T09:14:08.069Z,4.40
2018-09-04T09:16:38.278Z,4.47
2018-09-04T09:19:07.861Z,4.87
2018-09-04T09:21:37.410Z,4.90
2018-09-04T09:24:07.379Z,5.40
2018-09-04T09:26:36.965Z,5.10
2018-09-04T09:29:06.608Z,5.40
2018-09-04T09:31:36.149Z,5.20
2018-09-04T09:34:05.730Z,5.30
2018-09-04T09:36:35.720Z,5.43
2018-09-04T09:39:06.800Z,4.93
2018-09-04T09:41:36.597Z,5.03
2018-09-04T09:44:06.159Z,4.30
2018-09-04T09:46:35.726Z,4.40
2018-09-04T09:49:05.691Z,5.00
2018-09-04T09:51:35.321Z,4.10
2018-09-04T09:54:04.988Z,4.07
2018-09-04T09:56:34.425Z,4.90
2018-09-04T09:59:03.980Z,4.17
2018-09-04T10:01:40.802Z,3.73
2018-09-04T10:04:10.637Z,3.87
2018-09-04T10:06:39.943Z,4.17
2018-09-04T10:09:09.782Z,3.80
2018-09-04T10:11:39.484Z,3.97
2018-09-04T10:14:09.110Z,3.93
2018-09-04T10:16:38.693Z,4.10
2018-09-04T10:19:08.267Z,4.27
2018-09-04T10:21:37.834Z,3.93
2018-09-04T10:24:07.388Z,3.20
2018-09-04T10:26:37.245Z,3.63
2018-09-04T10:29:06.816Z,3.73
2018-09-04T10:31:36.433Z,3.53
2018-09-04T10:34:06.025Z,3.70
2018-09-04T10:36:35.632Z,4.20
2018-09-04T10:39:11.906Z,3.13
2018-09-04T10:41:41.420Z,4.00
2018-09-04T10:44:10.914Z,4.60
2018-09-04T10:46:40.416Z,3.73
2018-09-04T10:49:09.913Z,4.03
2018-09-04T10:51:39.572Z,4.10
2018-09-04T10:54:09.159Z,3.90
2018-09-04T10:56:38.643Z,4.20
2018-09-04T10:59:08.840Z,3.60
2018-09-04T11:01:38.279Z,4.67
2018-09-04T11:04:07.793Z,3.50
2018-09-04T11:06:37.613Z,3.43
2018-09-04T11:09:10.448Z,4.33
2018-09-04T11:11:41.499Z,4.30
2018-09-04T11:14:11.141Z,4.20
2018-09-04T11:16:40.612Z,3.90
2018-09-04T11:19:10.114Z,4.03
2018-09-04T11:21:39.969Z,3.93
2018-09-04T11:24:09.473Z,4.13
2018-09-04T11:26:39.056Z,3.73
2018-09-04T11:29:10.462Z,4.67
2018-09-04T11:31:40.126Z,5.40
2018-09-04T11:34:09.733Z,4.23
2018-09-04T11:36:39.324Z,5.00
2018-09-04T11:39:10.765Z,4.10
2018-09-04T11:41:40.745Z,4.43
2018-09-04T11:44:10.488Z,5.17
2018-09-04T11:46:40.136Z,4.37
2018-09-04T11:49:09.781Z,4.87
2018-09-04T11:51:39.421Z,4.80
2018-09-04T11:54:09.076Z,5.40
2018-09-04T11:56:41.231Z,5.73
2018-09-04T11:59:10.922Z,5.50
2018-09-04T12:01:43.830Z,5.23
2018-09-04T12:04:13.552Z,5.10
2018-09-04T12:06:43.317Z,6.47
2018-09-04T12:09:12.950Z,5.87
2018-09-04T12:11:46.723Z,6.30
2018-09-04T12:14:16.264Z,5.73
2018-09-04T12:16:46.187Z,6.20
2018-09-04T12:19:15.841Z,5.30
2018-09-04T12:21:45.758Z,6.30
2018-09-04T12:24:15.556Z,6.30
2018-09-04T12:26:45.106Z,6.53
2018-09-04T12:29:14.916Z,7.47
2018-09-04T12:31:44.685Z,7.10
2018-09-04T12:34:14.187Z,7.40
2018-09-04T12:36:43.753Z,6.93
2018-09-04T12:39:13.506Z,6.93
2018-09-04T12:41:43.108Z,8.00
2018-09-04T12:44:12.845Z,8.23
2018-09-04T12:46:42.295Z,7.73
2018-09-04T12:49:11.822Z,7.57
2018-09-04T12:51:41.496Z,7.27
2018-09-04T12:54:11.141Z,7.30
2018-09-04T12:56:40.681Z,6.10
2018-09-04T12:59:10.339Z,6.80
2018-09-04T13:01:39.967Z,6.63
2018-09-04T13:04:09.654Z,7.10
2018-09-04T13:06:39.345Z,6.53
2018-09-04T13:09:09.818Z,7.00
2018-09-04T13:11:39.558Z,6.77
2018-09-04T13:14:09.205Z,6.33
2018-09-04T13:16:38.933Z,7.83
2018-09-04T13:19:08.484Z,7.97
2018-09-04T13:21:38.374Z,6.90
2018-09-04T13:24:08.081Z,7.03
2018-09-04T13:26:37.708Z,6.63
2018-09-04T13:29:07.674Z,6.60
2018-09-04T13:31:37.345Z,7.13
2018-09-04T13:34:07.912Z,6.77
2018-09-04T13:36:37.562Z,6.40
2018-09-04T13:39:07.441Z,6.40
2018-09-04T13:41:37.015Z,6.40
2018-09-04T13:44:06.792Z,5.87
2018-09-04T13:46:36.619Z,6.97
2018-09-04T13:49:07.009Z,6.00
2018-09-04T13:51:37.318Z,6.60
2018-09-04T13:54:07.211Z,7.40
2018-09-04T13:56:36.899Z,5.80
2018-09-04T13:59:06.977Z,7.70
2018-09-04T14:01:36.654Z,6.23
2018-09-04T14:04:07.090Z,6.33
2018-09-04T14:06:36.875Z,6.50
2018-09-04T14:09:08.013Z,6.43
2018-09-04T14:11:37.963Z,7.23
2018-09-04T14:14:07.678Z,5.43
2018-09-04T14:16:43.157Z,6.87
2018-09-04T14:19:07.170Z,5.97
2018-09-04T14:21:36.761Z,6.90
2018-09-04T14:24:06.705Z,5.70
2018-09-04T14:26:36.505Z,7.27
2018-09-04T14:29:07.165Z,6.63
2018-09-04T14:31:36.444Z,6.90
2018-09-04T14:34:06.177Z,6.40
2018-09-04T14:36:36.116Z,7.27
2018-09-04T14:39:06.341Z,6.70
2018-09-04T14:41:36.281Z,7.23
2018-09-04T14:44:06.554Z,5.60
2018-09-04T14:46:36.264Z,6.03
2018-09-04T14:49:06.262Z,6.50
2018-09-04T14:51:36.787Z,6.63
2018-09-04T14:54:06.436Z,8.00
2018-09-04T14:56:36.110Z,7.67
2018-09-04T14:59:05.635Z,6.47
2018-09-04T15:01:35.071Z,8.10
2018-09-04T15:04:04.859Z,5.77
2018-09-04T15:06:34.558Z,7.93
2018-09-04T15:09:05.205Z,6.27
2018-09-04T15:11:34.995Z,11.80
2018-09-04T15:14:04.457Z,7.63
2018-09-04T15:16:33.975Z,6.90
2018-09-04T15:19:03.699Z,7.20
2018-09-04T15:21:33.097Z,6.70
2018-09-04T15:24:03.145Z,6.70
2018-09-04T15:26:32.850Z,7.60
2018-09-04T15:29:02.674Z,7.23
2018-09-04T15:31:32.451Z,6.10
2018-09-04T15:34:01.978Z,6.83
2018-09-04T15:36:31.773Z,6.90
2018-09-04T15:39:01.493Z,6.30
2018-09-04T15:41:31.217Z,5.73
2018-09-04T15:44:00.693Z,6.93
2018-09-04T15:46:30.525Z,7.37
2018-09-04T15:49:05.440Z,6.67
2018-09-04T15:51:35.050Z,6.43
2018-09-04T15:54:04.745Z,6.80
2018-09-04T15:56:34.406Z,6.03
2018-09-04T15:59:03.939Z,6.90
2018-09-04T16:01:33.535Z,5.20
2018-09-04T16:04:03.099Z,6.67
2018-09-04T16:06:32.718Z,7.20
2018-09-04T16:09:02.248Z,6.30
2018-09-04T16:11:31.864Z,6.53
2018-09-04T16:14:01.477Z,5.80
2018-09-04T16:16:31.236Z,7.00
2018-09-04T16:19:00.806Z,7.03
2018-09-04T16:21:30.493Z,7.10
2018-09-04T16:24:00.178Z,7.70
2018-09-04T16:26:29.768Z,7.63
2018-09-04T16:28:59.542Z,7.20
2018-09-04T16:31:29.296Z,7.87
2018-09-04T16:33:58.784Z,7.03
2018-09-04T16:36:28.544Z,6.90
2018-09-04T16:38:58.249Z,6.30
2018-09-04T16:41:27.928Z,7.90
2018-09-04T16:43:57.548Z,7.20
2018-09-04T16:46:27.122Z,5.67
2018-09-04T16:48:56.799Z,5.87
2018-09-04T16:51:26.471Z,5.80
2018-09-04T16:53:56.169Z,6.10
2018-09-04T16:56:25.841Z,5.97
2018-09-04T16:58:55.388Z,6.08
2018-09-04T17:01:25.048Z,6.20
2018-09-04T17:03:54.697Z,6.40
2018-09-04T17:06:24.346Z,5.83
2018-09-04T17:08:53.942Z,7.13
2018-09-04T17:11:23.680Z,8.17
2018-09-04T17:13:53.359Z,5.90
2018-09-04T17:16:23.099Z,6.73
2018-09-04T17:18:52.607Z,7.70
2018-09-04T17:21:22.291Z,7.00
2018-09-04T17:23:52.090Z,6.80
2018-09-04T17:26:21.811Z,5.83
2018-09-04T17:28:51.534Z,6.50
2018-09-04T17:31:21.880Z,7.23
2018-09-04T17:33:52.093Z,6.80
2018-09-04T17:36:21.734Z,8.27
2018-09-04T17:38:51.485Z,7.33
2018-09-04T17:41:21.130Z,7.23
2018-09-04T17:43:50.795Z,7.30
2018-09-04T17:46:20.906Z,7.23
2018-09-04T17:48:51.346Z,10.30
2018-09-04T17:51:20.878Z,9.20
2018-09-04T17:53:50.542Z,8.30
2018-09-04T17:56:20.156Z,9.57
2018-09-04T17:58:49.988Z,7.80
2018-09-04T18:01:19.876Z,7.30
2018-09-04T18:03:49.739Z,7.27
2018-09-04T18:06:19.534Z,6.97
2018-09-04T18:08:49.339Z,9.17
2018-09-04T18:11:19.724Z,7.67
2018-09-04T18:13:49.481Z,7.70
2018-09-04T18:16:19.817Z,7.23
2018-09-04T18:18:49.380Z,7.47
2018-09-04T18:21:19.034Z,7.07
2018-09-04T18:23:48.800Z,7.03
2018-09-04T18:26:18.461Z,7.70
2018-09-04T18:28:48.142Z,6.87
2018-09-04T18:31:17.758Z,7.33
2018-09-04T18:33:47.377Z,8.23
2018-09-04T18:36:22.991Z,7.80
2018-09-04T18:38:52.841Z,8.00
2018-09-04T18:41:22.552Z,6.50
2018-09-04T18:43:52.139Z,7.17
2018-09-04T18:46:21.941Z,6.80
2018-09-04T18:48:54.735Z,7.30
2018-09-04T18:51:26.529Z,6.60
2018-09-04T18:53:56.903Z,7.77
2018-09-04T18:56:26.958Z,7.43
2018-09-04T18:58:56.925Z,8.53
2018-09-04T19:01:26.657Z,7.67
2018-09-04T19:03:56.374Z,7.60
2018-09-04T19:06:26.101Z,7.00
2018-09-04T19:08:55.922Z,7.33
2018-09-04T19:11:25.679Z,8.20
2018-09-04T19:13:55.729Z,8.20
2018-09-04T19:16:25.398Z,8.07
2018-09-04T19:18:55.023Z,7.80
2018-09-04T19:21:24.823Z,8.83
2018-09-04T19:23:54.610Z,8.20
2018-09-04T19:26:24.439Z,7.40
2018-09-04T19:28:54.044Z,8.20
2018-09-04T19:31:23.841Z,7.80
2018-09-04T19:33:53.336Z,9.07
2018-09-04T19:36:23.714Z,9.30
2018-09-04T19:38:53.447Z,8.03
2018-09-04T19:41:23.064Z,7.83
2018-09-04T19:43:52.659Z,8.50
2018-09-04T19:46:22.494Z,9.70
2018-09-04T19:48:52.208Z,8.50
2018-09-04T19:51:21.878Z,8.40
2018-09-04T19:53:51.741Z,8.57
2018-09-04T19:56:21.735Z,7.90
2018-09-04T19:58:51.350Z,8.50
2018-09-04T20:01:21.251Z,7.70
2018-09-04T20:03:51.081Z,8.67
2018-09-04T20:06:20.831Z,8.33
2018-09-04T20:08:50.737Z,8.97
2018-09-04T20:11:20.615Z,8.33
2018-09-04T20:13:51.375Z,8.07
2018-09-04T20:16:20.916Z,9.27
2018-09-04T20:18:50.672Z,7.83
2018-09-04T20:21:20.487Z,8.23
2018-09-04T20:23:50.271Z,9.60
2018-09-04T20:26:20.078Z,10.00
2018-09-04T20:28:49.786Z,8.50
2018-09-04T20:31:19.526Z,8.47
2018-09-04T20:33:49.427Z,8.33
2018-09-04T20:36:19.146Z,9.73
2018-09-04T20:38:48.859Z,8.67
2018-09-04T20:41:19.146Z,8.60
2018-09-04T20:43:55.766Z,7.77
2018-09-04T20:46:25.561Z,7.53
2018-09-04T20:48:55.162Z,7.97
2018-09-04T20:51:24.897Z,8.20
2018-09-04T20:53:54.590Z,8.73
2018-09-04T20:56:24.217Z,8.30
2018-09-04T20:59:10.347Z,9.03
2018-09-04T21:01:56.827Z,7.67
2018-09-04T21:04:43.343Z,8.43
2018-09-04T21:07:15.174Z,8.40
2018-09-04T21:09:49.943Z,8.60
2018-09-04T21:12:19.772Z,8.27
2018-09-04T21:14:49.358Z,9.40
2018-09-04T21:17:19.144Z,9.13
2018-09-04T21:19:48.818Z,8.50
2018-09-04T21:22:18.503Z,8.40
2018-09-04T21:24:48.137Z,9.27
2018-09-04T21:27:17.720Z,8.90
2018-09-04T21:29:47.344Z,9.90
2018-09-04T21:32:16.898Z,9.23
2018-09-04T21:34:46.557Z,9.03
2018-09-04T21:37:16.361Z,9.27
2018-09-04T21:39:52.706Z,10.10
2018-09-04T21:42:22.506Z,10.07
2018-09-04T21:44:52.050Z,9.40
2018-09-04T21:47:21.667Z,8.83
2018-09-04T21:49:51.360Z,9.67
2018-09-04T21:52:21.774Z,9.13
2018-09-04T21:54:51.521Z,8.30
2018-09-04T21:57:21.219Z,8.53
2018-09-04T21:59:50.934Z,8.53
2018-09-04T22:02:20.624Z,9.30
2018-09-04T22:04:50.237Z,8.50
2018-09-04T22:07:20.038Z,8.53
2018-09-04T22:09:49.677Z,9.67
2018-09-04T22:12:19.180Z,8.70
2018-09-04T22:14:51.699Z,8.00
2018-09-04T22:17:21.341Z,8.30
2018-09-04T22:19:50.952Z,9.10
2018-09-04T22:22:20.597Z,8.87
2018-09-04T22:24:50.087Z,9.37
2018-09-04T22:27:19.797Z,8.73
2018-09-04T22:29:49.483Z,8.20
2018-09-04T22:32:19.156Z,8.70
2018-09-04T22:34:48.722Z,8.17
2018-09-04T22:37:18.241Z,8.27
2018-09-04T22:39:47.709Z,8.03
2018-09-04T22:42:17.623Z,7.60
2018-09-04T22:44:47.152Z,8.30
2018-09-04T22:47:16.751Z,7.30
2018-09-04T22:49:52.086Z,8.07
2018-09-04T22:52:25.653Z,6.53
2018-09-04T22:54:57.286Z,8.53
2018-09-04T22:57:26.957Z,8.00
2018-09-04T22:59:57.139Z,8.00
2018-09-04T23:02:26.749Z,6.90
2018-09-04T23:04:56.363Z,8.20
2018-09-04T23:07:26.225Z,7.50
2018-09-04T23:09:56.127Z,9.00
2018-09-04T23:12:25.826Z,8.67
2018-09-04T23:14:55.472Z,7.07
2018-09-04T23:17:25.146Z,7.70
2018-09-04T23:19:54.789Z,8.47
2018-09-04T23:22:24.236Z,7.63
2018-09-04T23:24:53.771Z,8.50
2018-09-04T23:27:23.372Z,7.70
2018-09-04T23:29:53.029Z,8.23
2018-09-04T23:32:22.793Z,9.00
2018-09-04T23:34:52.664Z,8.33
2018-09-04T23:37:22.242Z,7.57
2018-09-04T23:39:51.741Z,8.63
2018-09-04T23:42:21.360Z,6.97
2018-09-04T23:44:51.501Z,8.23
2018-09-04T23:47:21.757Z,9.00
2018-09-04T23:49:51.381Z,8.90
2018-09-04T23:52:20.861Z,8.60
2018-09-04T23:54:50.493Z,7.23
2018-09-04T23:57:20.615Z,8.37
2018-09-04T23:59:50.150Z,8.20
